Time;durP1;ratioP1;P1;durP2;ratioP2;P2;SDS_P1;SDS_P2;PMS_P1;PMS_P2;Temp;Humidity;BMP_temperature;BMP_pressure;BME280_temperature;BME280_humidity;BME280_pressure;Samples;Min_cycle;Max_cycle;Signal;HPM_P1;HPM_P2
2023/06/07 00:00:48;;;;;;;19.55;9.20;;;;;;;19.24;71.56;101116.38;5066543;28;20048;-62
2023/06/07 00:03:16;;;;;;;19.25;9.57;;;;;;;19.55;70.30;101127.53;5058050;28;20045;-62
2023/06/07 00:05:44;;;;;;;23.70;10.90;;;;;;;19.41;70.60;101127.22;5059310;28;20040;-63
2023/06/07 00:08:11;;;;;;;23.30;11.38;;;;;;;19.33;70.68;101123.47;5071787;28;20052;-63
2023/06/07 00:10:38;;;;;;;25.92;11.20;;;;;;;19.33;70.81;101126.25;5064145;28;20072;-66
2023/06/07 00:13:06;;;;;;;23.10;10.00;;;;;;;19.42;70.71;101128.84;5065589;28;20039;-62
2023/06/07 00:15:33;;;;;;;21.58;10.82;;;;;;;19.35;70.24;101129.50;5065993;28;20052;-62
2023/06/07 00:18:01;;;;;;;22.25;11.13;;;;;;;19.30;70.64;101131.72;5059652;28;20049;-61
2023/06/07 00:20:30;;;;;;;25.58;11.57;;;;;;;19.33;70.79;101133.81;5067114;28;20045;-62
2023/06/07 00:22:58;;;;;;;30.45;11.40;;;;;;;19.03;71.77;101139.00;5054164;28;20062;-62
2023/06/07 00:25:25;;;;;;;26.20;11.98;;;;;;;18.99;72.03;101138.09;5067615;28;20518;-63
2023/06/07 00:27:54;;;;;;;38.70;11.95;;;;;;;18.81;72.87;101134.06;5065712;28;20044;-63
2023/06/07 00:30:21;;;;;;;22.67;11.40;;;;;;;18.68;72.96;101138.91;5065584;28;20056;-62
2023/06/07 00:32:48;;;;;;;29.35;12.63;;;;;;;18.39;73.86;101135.66;5060041;28;20056;-61
2023/06/07 00:35:16;;;;;;;26.25;12.43;;;;;;;18.42;73.83;101134.97;5057300;28;20052;-62
2023/06/07 00:37:43;;;;;;;25.63;11.40;;;;;;;18.16;75.20;101138.19;5049930;28;20048;-63
2023/06/07 00:40:11;;;;;;;21.17;12.25;;;;;;;18.20;75.17;101132.72;5044918;28;20048;-63
2023/06/07 00:42:38;;;;;;;27.35;11.25;;;;;;;18.28;74.84;101129.75;5061890;28;20051;-62
2023/06/07 00:45:06;;;;;;;30.17;12.60;;;;;;;18.34;74.39;101131.13;5055770;28;20044;-64
2023/06/07 00:47:36;;;;;;;29.60;12.15;;;;;;;18.44;74.12;101129.84;5058508;28;20511;-62
2023/06/07 00:50:04;;;;;;;;;;;;;;;18.38;74.07;101122.84;5057303;28;20067;-62
2023/06/07 00:52:34;;;;;;;26.65;11.93;;;;;;;18.44;73.98;101127.06;5046888;28;19931;-62
2023/06/07 00:55:03;;;;;;;27.17;12.43;;;;;;;18.12;74.60;101133.66;5055374;28;20787;-62
2023/06/07 00:57:33;;;;;;;31.90;12.25;;;;;;;18.26;74.63;101131.28;5061549;28;20048;-62
2023/06/07 01:00:05;;;;;;;27.65;12.63;;;;;;;18.49;73.33;101127.59;5066499;28;20071;-62
2023/06/07 01:02:33;;;;;;;26.65;11.93;;;;;;;18.28;73.64;101124.19;5039115;28;20053;-62
2023/06/07 01:05:03;;;;;;;30.77;12.30;;;;;;;18.00;75.30;101137.28;5046868;28;20407;-64
2023/06/07 01:07:32;;;;;;;33.17;12.47;;;;;;;17.72;76.21;101131.69;5044787;28;20064;-64
2023/06/07 01:10:01;;;;;;;31.52;13.02;;;;;;;17.67;76.87;101126.34;5052895;28;20041;-64
2023/06/07 01:12:30;;;;;;;26.58;12.35;;;;;;;17.60;77.15;101123.34;5056251;28;20052;-64
2023/06/07 01:14:58;;;;;;;27.63;12.88;;;;;;;17.86;75.79;101129.31;5053264;28;20056;-63
2023/06/07 01:17:26;;;;;;;28.17;12.57;;;;;;;17.74;76.24;101121.00;5063847;28;20088;-62
2023/06/07 01:19:55;;;;;;;27.92;12.68;;;;;;;17.70;76.43;101128.44;5054888;28;20052;-62
2023/06/07 01:22:29;;;;;;;34.70;13.30;;;;;;;17.67;76.35;101120.78;5052444;28;20045;-63
2023/06/07 01:25:00;;;;;;;28.70;13.30;;;;;;;17.61;76.68;101127.75;5060577;28;20056;-62
2023/06/07 01:27:30;;;;;;;27.92;12.88;;;;;;;17.68;76.36;101119.59;5047138;28;20049;-62
2023/06/07 01:29:58;;;;;;;30.92;13.60;;;;;;;17.40;77.05;101118.69;5057442;28;20036;-62
2023/06/07 01:32:26;;;;;;;30.23;14.45;;;;;;;17.50;77.38;101120.22;5058424;28;20056;-62
2023/06/07 01:34:53;;;;;;;28.05;13.40;;;;;;;17.71;76.07;101118.09;5054561;28;20047;-63
2023/06/07 01:37:21;;;;;;;31.13;13.90;;;;;;;17.45;77.08;101115.66;5056523;28;20063;-63
2023/06/07 01:39:50;;;;;;;26.77;13.48;;;;;;;17.64;76.26;101117.88;5066377;28;20056;-62
2023/06/07 01:42:18;;;;;;;27.00;12.90;;;;;;;17.68;75.94;101111.25;5052361;28;20048;-64
2023/06/07 01:44:47;;;;;;;31.38;14.02;;;;;;;17.62;75.85;101112.66;5054496;28;20049;-64
2023/06/07 01:47:14;;;;;;;29.73;13.75;;;;;;;17.65;75.89;101114.75;5059834;28;20048;-63
2023/06/07 01:49:42;;;;;;;34.75;13.40;;;;;;;17.54;76.25;101110.00;5053273;28;20536;-63
2023/06/07 01:52:10;;;;;;;25.50;13.40;;;;;;;17.55;75.63;101112.44;5053274;28;20053;-63
2023/06/07 01:54:39;;;;;;;24.80;14.02;;;;;;;17.40;76.58;101110.31;5055697;28;20041;-62
2023/06/07 01:57:35;;;;;;;32.55;14.40;;;;;;;17.52;75.91;101106.75;5052493;28;20428;-61
2023/06/07 02:00:07;;;;;;;34.47;14.57;;;;;;;17.53;75.72;101103.63;5055825;28;20052;-62
2023/06/07 02:02:53;;;;;;;29.95;13.57;;;;;;;17.26;76.74;101109.06;5059357;28;20063;-62
2023/06/07 02:05:44;;;;;;;28.85;13.60;;;;;;;17.15;77.66;101102.34;5042481;28;20052;-62
2023/06/07 02:08:33;;;;;;;30.33;14.60;;;;;;;16.60;80.32;101098.09;5059665;28;20064;-63
2023/06/07 02:11:02;;;;;;;33.40;14.90;;;;;;;16.65;80.53;101106.22;5060826;28;20046;-62
2023/06/07 02:13:40;;;;;;;32.67;15.77;;;;;;;16.89;79.22;101105.47;5068341;28;20045;-64
2023/06/07 02:16:07;;;;;;;33.58;16.08;;;;;;;16.82;79.22;101103.22;5046909;28;20056;-62
2023/06/07 02:18:40;;;;;;;30.75;14.90;;;;;;;16.83;79.29;101099.31;5051626;28;20056;-62
2023/06/07 02:21:11;;;;;;;39.35;15.30;;;;;;;16.86;78.81;101104.16;5055806;28;20067;-62
2023/06/07 02:23:40;;;;;;;28.15;15.25;;;;;;;16.76;80.00;101093.50;5061349;28;20041;-64
2023/06/07 02:26:07;;;;;;;31.95;16.33;;;;;;;16.74;79.51;101095.00;5057350;28;20061;-64
2023/06/07 02:28:35;;;;;;;32.53;15.65;;;;;;;16.65;80.03;101091.50;5041442;28;20059;-62
2023/06/07 02:31:03;;;;;;;31.67;15.55;;;;;;;16.88;79.34;101094.69;5056665;28;20052;-62
2023/06/07 02:33:30;;;;;;;33.42;15.50;;;;;;;16.84;78.80;101087.00;5056995;28;20044;-61
2023/06/07 02:35:58;;;;;;;32.60;14.50;;;;;;;17.01;78.42;101091.56;5055949;28;20056;-63
2023/06/07 02:38:25;;;;;;;30.35;15.23;;;;;;;16.83;78.95;101092.94;5061031;28;20049;-62
2023/06/07 02:40:54;;;;;;;32.75;16.05;;;;;;;17.00;78.35;101095.47;5053367;28;20041;-62
2023/06/07 02:43:22;;;;;;;32.95;15.13;;;;;;;16.96;78.14;101097.34;5060875;28;20045;-62
2023/06/07 02:45:51;;;;;;;31.83;16.00;;;;;;;16.77;78.74;101088.75;5052041;28;20044;-63
2023/06/07 02:48:18;;;;;;;35.78;17.15;;;;;;;16.73;79.19;101101.72;5051742;28;20405;-63
2023/06/07 02:50:46;;;;;;;32.55;15.20;;;;;;;16.71;79.31;101087.34;5059254;28;20071;-63
2023/06/07 02:53:13;;;;;;;33.92;16.85;;;;;;;16.63;79.68;101088.28;5066665;28;20059;-62
2023/06/07 02:55:41;;;;;;;28.58;14.80;;;;;;;16.64;79.65;101087.91;5051662;28;20056;-62
2023/06/07 02:58:08;;;;;;;35.25;15.85;;;;;;;16.32;81.45;101094.28;5056841;28;20057;-63
2023/06/07 03:00:38;;;;;;;34.67;15.38;;;;;;;16.54;80.54;101093.13;5054880;28;20055;-63
2023/06/07 03:03:10;;;;;;;32.42;15.75;;;;;;;16.14;82.27;101089.25;5070456;28;20053;-62
2023/06/07 03:05:46;;;;;;;31.55;17.08;;;;;;;16.11;82.70;101093.50;5060721;28;20044;-63
2023/06/07 03:08:16;;;;;;;32.78;16.55;;;;;;;16.11;82.87;101090.72;5064496;28;20095;-62
2023/06/07 03:10:44;;;;;;;35.00;15.40;;;;;;;16.25;82.51;101093.22;5052786;28;20430;-62
2023/06/07 03:13:17;;;;;;;38.42;16.15;;;;;;;16.26;81.67;101087.31;5076427;28;20047;-62
2023/06/07 03:15:45;;;;;;;33.20;16.25;;;;;;;16.35;81.21;101092.81;5064036;28;20075;-67
2023/06/07 03:18:15;;;;;;;29.85;16.88;;;;;;;15.86;83.61;101091.78;5062479;28;20052;-63
2023/06/07 03:20:49;;;;;;;29.38;17.15;;;;;;;15.89;83.84;101084.72;5051568;28;20052;-62
2023/06/07 03:23:18;;;;;;;33.37;16.50;;;;;;;15.97;83.71;101083.84;5043484;28;20158;-62
2023/06/07 03:25:49;;;;;;;35.17;16.10;;;;;;;16.05;83.18;101092.09;5059130;28;20068;-63
2023/06/07 03:28:22;;;;;;;32.30;16.80;;;;;;;15.74;84.20;101086.97;5059080;28;20053;-66
2023/06/07 03:30:50;;;;;;;40.53;16.98;;;;;;;15.96;83.55;101083.03;5062007;28;20508;-62
2023/06/07 03:33:24;;;;;;;32.58;16.20;;;;;;;16.21;82.29;101086.72;5060113;28;20045;-64
2023/06/07 03:35:52;;;;;;;33.40;16.73;;;;;;;16.30;81.40;101082.69;5058696;28;20037;-63
2023/06/07 03:38:28;;;;;;;33.58;16.40;;;;;;;16.09;82.31;101081.13;5051074;28;20052;-63
2023/06/07 03:40:56;;;;;;;34.92;16.65;;;;;;;16.01;83.23;101088.38;5050784;28;20059;-62
2023/06/07 03:43:25;;;;;;;35.47;17.57;;;;;;;15.99;83.12;101090.69;5041133;28;20049;-63
2023/06/07 03:45:53;;;;;;;31.48;17.20;;;;;;;15.99;82.80;101087.91;5064680;28;20724;-63
2023/06/07 03:48:20;;;;;;;39.92;17.80;;;;;;;16.03;82.84;101088.03;5051794;28;20484;-64
2023/06/07 03:50:48;;;;;;;29.95;15.52;;;;;;;16.08;82.17;101085.88;5050979;28;20056;-64
2023/06/07 03:53:16;;;;;;;44.15;18.25;;;;;;;15.83;83.72;101084.13;5045211;28;20052;-63
2023/06/07 03:55:48;;;;;;;;;;;;;;;16.14;82.75;101092.03;5054961;28;20597;-63
2023/06/07 03:58:18;;;;;;;31.55;17.30;;;;;;;16.19;81.63;101089.03;5053652;28;19924;-63
2023/06/07 04:00:47;;;;;;;38.28;18.70;;;;;;;15.61;84.32;101088.06;5044515;28;20049;-62
2023/06/07 04:03:15;;;;;;;36.42;17.83;;;;;;;15.66;84.74;101087.84;5050865;28;20048;-62
2023/06/07 04:05:43;;;;;;;32.60;18.35;;;;;;;15.72;84.11;101092.06;5052334;28;20112;-62
2023/06/07 04:08:11;;;;;;;32.33;17.13;;;;;;;15.82;84.24;101104.72;5057372;28;20495;-62
2023/06/07 04:10:40;;;;;;;48.35;19.55;;;;;;;15.72;84.32;101088.47;5032914;28;20420;-62
2023/06/07 04:13:08;;;;;;;33.45;17.83;;;;;;;15.78;84.05;101093.47;5061146;28;20052;-63
2023/06/07 04:15:43;;;;;;;38.65;19.77;;;;;;;15.89;83.45;101095.84;5064441;28;20060;-63
2023/06/07 04:18:17;;;;;;;;;;;;;;;16.11;82.28;101106.63;5036886;28;20060;-62
2023/06/07 04:20:44;;;;;;;31.73;18.33;;;;;;;15.84;82.59;101102.41;5051626;28;19965;-62
2023/06/07 04:23:14;;;;;;;40.47;18.58;;;;;;;15.77;83.81;101110.47;5051582;28;20053;-61
2023/06/07 04:25:43;;;;;;;41.58;18.95;;;;;;;15.45;85.59;101106.47;5050788;28;20404;-62
2023/06/07 04:28:12;;;;;;;39.25;18.70;;;;;;;15.68;85.28;101110.56;5050662;28;20453;-62
2023/06/07 04:30:42;;;;;;;39.22;20.23;;;;;;;15.45;85.46;101109.22;5044627;28;20044;-62
2023/06/07 04:33:12;;;;;;;39.95;20.42;;;;;;;15.58;85.49;101116.50;5051184;28;20052;-62
2023/06/07 04:35:43;;;;;;;36.15;19.55;;;;;;;15.51;86.05;101118.19;5060090;28;20040;-63
2023/06/07 04:38:21;;;;;;;36.42;19.42;;;;;;;15.53;86.09;101108.34;5062342;28;20060;-62
2023/06/07 04:40:53;;;;;;;38.63;20.42;;;;;;;15.46;86.38;101112.84;5056919;28;20044;-61
2023/06/07 04:43:36;;;;;;;38.03;20.65;;;;;;;15.36;86.10;101115.97;5062110;28;20063;-61
2023/06/07 04:46:05;;;;;;;36.47;20.05;;;;;;;15.41;86.21;101115.81;5052487;28;20055;-62
2023/06/07 04:48:40;;;;;;;39.88;19.95;;;;;;;15.59;86.06;101120.91;5054500;28;20057;-62
2023/06/07 04:51:09;;;;;;;39.42;21.00;;;;;;;15.75;85.25;101119.16;5059274;28;20083;-66
2023/06/07 04:53:44;;;;;;;40.80;20.25;;;;;;;15.54;84.67;101123.88;5038532;28;20060;-61
2023/06/07 04:56:17;;;;;;;39.88;19.67;;;;;;;15.88;84.60;101122.81;5054526;28;20060;-62
2023/06/07 04:58:45;;;;;;;38.00;20.90;;;;;;;15.79;83.84;101122.88;5065695;28;20059;-62
2023/06/07 05:01:16;;;;;;;43.15;21.13;;;;;;;15.69;83.98;101114.16;5053361;28;20041;-63
2023/06/07 05:03:44;;;;;;;37.72;20.95;;;;;;;15.71;84.38;101123.75;5067928;28;20059;-63
2023/06/07 05:06:17;;;;;;;38.33;20.88;;;;;;;15.87;83.51;101128.69;5053457;28;20048;-62
2023/06/07 05:08:45;;;;;;;39.53;20.85;;;;;;;15.72;84.07;101124.56;5058778;28;20057;-63
2023/06/07 05:11:13;;;;;;;38.80;21.67;;;;;;;15.57;84.51;101125.97;5070089;28;20048;-62
2023/06/07 05:13:41;;;;;;;41.78;22.52;;;;;;;15.41;85.66;101124.13;5072822;28;20040;-62
2023/06/07 05:16:15;;;;;;;41.75;22.48;;;;;;;15.46;86.20;101129.50;5053761;28;20049;-62
2023/06/07 05:18:48;;;;;;;50.05;22.65;;;;;;;15.58;85.12;101124.03;5054501;28;20056;-63
2023/06/07 05:21:18;;;;;;;41.80;22.45;;;;;;;15.90;84.30;101128.81;5053388;28;20053;-62
2023/06/07 05:23:46;;;;;;;39.65;21.13;;;;;;;15.85;83.51;101131.03;5064088;28;20059;-63
2023/06/07 05:26:13;;;;;;;43.63;23.85;;;;;;;15.41;86.10;101124.13;5052968;28;20060;-62
2023/06/07 05:28:42;;;;;;;44.50;23.15;;;;;;;15.54;85.32;101123.06;5061545;28;20052;-62
2023/06/07 05:31:10;;;;;;;45.00;23.40;;;;;;;15.58;84.92;101119.28;5056921;28;20049;-62
2023/06/07 05:33:39;;;;;;;39.80;23.00;;;;;;;15.74;84.52;101122.28;5054409;28;20045;-62
2023/06/07 05:36:07;;;;;;;41.65;23.20;;;;;;;15.90;83.67;101122.47;5053860;28;20052;-63
2023/06/07 05:38:36;;;;;;;43.47;23.20;;;;;;;15.50;85.17;101114.59;5059213;28;20060;-63
2023/06/07 05:41:04;;;;;;;41.88;24.20;;;;;;;15.73;84.53;101120.63;5045682;28;20075;-62
2023/06/07 05:43:31;;;;;;;48.10;23.83;;;;;;;15.83;84.00;101116.66;5054242;28;20059;-61
2023/06/07 05:45:59;;;;;;;46.47;23.60;;;;;;;15.64;84.49;101119.88;5066009;28;20044;-62
2023/06/07 05:48:26;;;;;;;45.65;25.38;;;;;;;15.53;85.23;101113.91;5058055;28;20512;-62
2023/06/07 05:50:54;;;;;;;45.88;25.40;;;;;;;15.45;85.54;101111.19;5057275;28;20060;-63
2023/06/07 05:53:23;;;;;;;39.00;23.90;;;;;;;15.63;85.13;101118.25;5065381;28;20044;-62
2023/06/07 05:55:50;;;;;;;52.90;25.70;;;;;;;15.77;84.06;101122.41;5071679;28;20058;-62
2023/06/07 05:58:18;;;;;;;54.20;26.23;;;;;;;15.55;85.06;101127.47;5065775;28;20061;-62
2023/06/07 06:00:47;;;;;;;38.80;23.95;;;;;;;15.57;85.34;101119.59;5063731;28;20045;-63
2023/06/07 06:03:18;;;;;;;47.70;24.95;;;;;;;15.70;84.95;101119.38;5058527;28;20053;-63
2023/06/07 06:05:45;;;;;;;50.42;26.50;;;;;;;15.88;83.90;101120.03;5072930;28;20044;-63
2023/06/07 06:08:15;;;;;;;45.70;25.02;;;;;;;15.55;85.62;101124.69;5069034;28;20492;-62
2023/06/07 06:10:44;;;;;;;51.97;26.20;;;;;;;15.64;85.02;101125.44;5056964;28;20060;-62
2023/06/07 06:13:12;;;;;;;45.20;24.70;;;;;;;15.96;84.18;101126.66;5079648;28;20044;-64
2023/06/07 06:15:39;;;;;;;40.20;23.55;;;;;;;15.83;83.47;101131.34;5065676;28;20068;-62
2023/06/07 06:18:06;;;;;;;41.63;24.13;;;;;;;15.97;83.84;101131.09;5063571;28;20040;-62
2023/06/07 06:20:36;;;;;;;44.15;24.65;;;;;;;16.15;82.12;101129.78;5067077;28;20055;-62
2023/06/07 06:23:04;;;;;;;45.13;24.83;;;;;;;16.06;82.37;101129.84;5062670;28;20361;-62
2023/06/07 06:25:31;;;;;;;50.97;25.58;;;;;;;16.23;82.09;101137.22;5067040;28;20057;-62
2023/06/07 06:27:59;;;;;;;43.50;25.17;;;;;;;16.26;81.33;101137.38;5065334;28;20056;-62
2023/06/07 06:30:27;;;;;;;47.65;24.98;;;;;;;16.22;81.55;101136.41;5064483;28;20061;-63
2023/06/07 06:32:54;;;;;;;45.08;23.38;;;;;;;15.99;82.44;101140.69;5070312;28;20044;-62
2023/06/07 06:35:22;;;;;;;41.03;24.08;;;;;;;16.12;82.17;101147.13;5069947;28;20074;-62
2023/06/07 06:37:49;;;;;;;45.25;25.05;;;;;;;16.04;81.97;101142.47;5065781;28;20053;-62
2023/06/07 06:40:19;;;;;;;44.03;24.23;;;;;;;16.18;82.84;101148.56;5052402;28;20052;-63
2023/06/07 06:42:47;;;;;;;;;;;;;;;16.14;82.38;101142.06;5054883;28;20048;-64
2023/06/07 06:45:30;;;;;;;42.20;23.40;;;;;;;16.44;80.84;101147.16;5063254;28;19928;-65
2023/06/07 06:48:00;;;;;;;38.90;23.27;;;;;;;16.75;79.91;101149.50;5057669;28;20061;-65
2023/06/07 06:50:29;;;;;;;43.40;22.95;;;;;;;17.05;77.96;101137.00;5063205;28;20049;-64
2023/06/07 06:53:00;;;;;;;40.10;23.42;;;;;;;17.04;77.18;101134.56;5062787;28;20041;-65
2023/06/07 06:55:28;;;;;;;40.40;22.15;;;;;;;17.18;77.39;101133.06;5066719;28;20044;-64
2023/06/07 06:57:56;;;;;;;42.72;22.75;;;;;;;17.07;76.51;101137.47;5056915;28;20056;-65
2023/06/07 07:00:24;;;;;;;38.97;23.55;;;;;;;16.86;77.67;101145.91;5057907;28;20053;-66
2023/06/07 07:02:52;;;;;;;34.53;21.40;;;;;;;17.23;76.48;101137.59;5051501;28;21420;-64
2023/06/07 07:05:21;;;;;;;36.75;20.77;;;;;;;17.25;75.65;101138.06;5054177;28;20389;-63
2023/06/07 07:07:49;;;;;;;46.33;20.77;;;;;;;17.69;74.25;101137.13;5055572;28;20048;-65
2023/06/07 07:10:18;;;;;;;48.40;21.38;;;;;;;17.78;73.54;101138.63;5057297;28;20056;-63
2023/06/07 07:12:46;;;;;;;42.97;21.17;;;;;;;17.70;73.16;101135.97;5065308;28;20049;-64
2023/06/07 07:15:13;;;;;;;41.50;21.00;;;;;;;17.62;73.65;101140.53;5056407;28;20708;-64
2023/06/07 07:17:48;;;;;;;38.60;20.55;;;;;;;17.85;72.67;101141.63;5054685;28;20056;-64
2023/06/07 07:20:17;;;;;;;37.78;19.85;;;;;;;17.52;74.21;101137.41;5062125;28;20067;-64
2023/06/07 07:22:46;;;;;;;37.72;20.50;;;;;;;17.64;74.06;101138.19;5057067;28;20044;-64
2023/06/07 07:25:14;;;;;;;45.37;20.93;;;;;;;17.39;74.37;101149.66;5054862;28;20057;-65
2023/06/07 07:27:42;;;;;;;36.40;19.85;;;;;;;17.25;75.63;101141.66;5053558;28;20037;-64
2023/06/07 07:30:10;;;;;;;39.13;20.75;;;;;;;17.42;75.10;101140.59;5064040;28;20056;-62
2023/06/07 07:32:38;;;;;;;35.10;20.38;;;;;;;17.40;74.92;101151.31;5058926;28;20048;-63
2023/06/07 07:35:06;;;;;;;39.28;19.83;;;;;;;17.39;75.59;101156.06;5058701;28;20048;-62
2023/06/07 07:37:33;;;;;;;39.83;21.48;;;;;;;17.55;74.08;101145.06;5064467;28;20039;-63
2023/06/07 07:40:01;;;;;;;42.90;20.15;;;;;;;17.49;74.73;101144.47;5064635;28;20506;-63
2023/06/07 07:42:29;;;;;;;50.85;21.30;;;;;;;17.97;73.39;101146.38;5054478;28;20061;-63
2023/06/07 07:44:56;;;;;;;36.15;18.77;;;;;;;17.73;73.72;101146.44;5054517;28;20052;-63
2023/06/07 07:47:24;;;;;;;38.25;19.60;;;;;;;17.62;73.79;101137.75;5061473;28;20048;-65
2023/06/07 07:49:55;;;;;;;35.90;19.13;;;;;;;17.80;73.55;101143.88;5058302;28;20044;-64
2023/06/07 07:52:22;;;;;;;34.20;18.10;;;;;;;18.04;72.80;101145.75;5060525;28;20048;-63
2023/06/07 07:54:50;;;;;;;38.40;18.52;;;;;;;18.32;71.21;101138.22;5056901;28;20075;-63
2023/06/07 07:57:17;;;;;;;30.20;16.48;;;;;;;18.58;70.36;101138.59;5057842;28;20044;-64
2023/06/07 07:59:45;;;;;;;31.13;17.38;;;;;;;18.39;70.33;101141.22;5056103;28;20430;-63
2023/06/07 08:02:12;;;;;;;37.65;17.50;;;;;;;18.55;69.15;101131.75;5056937;28;20052;-62
2023/06/07 08:04:40;;;;;;;26.83;16.10;;;;;;;18.79;68.46;101128.81;5059044;28;20049;-63
2023/06/07 08:07:08;;;;;;;30.15;17.17;;;;;;;18.99;67.49;101124.97;5054784;28;20380;-62
2023/06/07 08:09:35;;;;;;;27.58;15.52;;;;;;;19.24;66.59;101130.34;5060187;28;20064;-62
2023/06/07 08:12:03;;;;;;;33.78;16.65;;;;;;;19.39;65.84;101124.78;5060579;28;20053;-63
2023/06/07 08:14:30;;;;;;;27.75;16.52;;;;;;;19.23;65.96;101125.97;5065090;28;20044;-63
2023/06/07 08:16:57;;;;;;;31.95;16.65;;;;;;;19.15;66.58;101130.53;5059516;28;20851;-62
2023/06/07 08:19:26;;;;;;;31.50;16.52;;;;;;;19.41;65.77;101127.22;5063474;28;20045;-63
2023/06/07 08:21:53;;;;;;;26.33;15.95;;;;;;;19.60;65.44;101133.66;5059667;28;20059;-62
2023/06/07 08:24:21;;;;;;;38.22;16.92;;;;;;;19.51;65.87;101130.25;5057239;28;20053;-63
2023/06/07 08:26:49;;;;;;;30.60;16.52;;;;;;;19.75;65.34;101134.81;5054780;28;20622;-63
2023/06/07 08:29:16;;;;;;;36.83;16.27;;;;;;;20.19;64.55;101135.41;5055602;28;20048;-63
2023/06/07 08:31:47;;;;;;;33.22;15.77;;;;;;;20.43;62.40;101123.91;5058186;28;20068;-64
2023/06/07 08:34:14;;;;;;;37.50;17.30;;;;;;;20.04;63.61;101132.28;5061078;28;20131;-63
2023/06/07 08:36:41;;;;;;;34.20;16.58;;;;;;;19.73;64.88;101132.41;5059473;28;20053;-64
2023/06/07 08:39:09;;;;;;;27.70;15.38;;;;;;;20.20;63.30;101126.66;5061009;28;20057;-64
2023/06/07 08:41:36;;;;;;;29.50;15.35;;;;;;;20.28;63.23;101130.38;5054226;28;20072;-65
2023/06/07 08:44:04;;;;;;;27.27;14.35;;;;;;;20.64;61.97;101127.13;5054421;28;20063;-63
2023/06/07 08:46:31;;;;;;;34.78;15.18;;;;;;;20.81;61.43;101123.84;5057574;28;20049;-65
2023/06/07 08:49:00;;;;;;;27.98;13.98;;;;;;;21.16;59.79;101133.72;5063657;28;20045;-63
2023/06/07 08:51:28;;;;;;;26.80;13.18;;;;;;;21.30;59.43;101121.94;5051482;28;20634;-64
2023/06/07 08:53:56;;;;;;;31.92;13.80;;;;;;;20.89;60.22;101114.38;5062198;28;20059;-63
2023/06/07 08:56:25;;;;;;;32.83;14.48;;;;;;;20.84;60.15;101118.31;5050130;28;20052;-63
2023/06/07 08:58:53;;;;;;;22.98;12.70;;;;;;;20.87;58.97;101113.97;5052992;28;20080;-64
2023/06/07 09:01:21;;;;;;;26.83;11.45;;;;;;;20.76;59.26;101110.97;5061477;28;20056;-63
2023/06/07 09:03:52;;;;;;;25.45;11.80;;;;;;;21.06;58.33;101108.31;5065552;28;20052;-64
2023/06/07 09:06:21;;;;;;;21.52;11.18;;;;;;;21.01;58.54;101106.63;5059525;28;20057;-63
2023/06/07 09:08:49;;;;;;;17.27;9.85;;;;;;;21.38;56.28;101104.03;5057116;28;20068;-63
2023/06/07 09:11:17;;;;;;;21.50;10.73;;;;;;;21.48;55.58;101103.38;5061863;28;20064;-64
2023/06/07 09:13:44;;;;;;;22.48;10.90;;;;;;;21.52;55.45;101104.25;5059199;28;20060;-63
2023/06/07 09:16:11;;;;;;;29.17;10.88;;;;;;;21.69;55.08;101102.91;5059111;28;20068;-63
2023/06/07 09:18:43;;;;;;;23.42;11.60;;;;;;;21.87;55.04;101101.97;5061682;28;20036;-63
2023/06/07 09:21:19;;;;;;;21.77;10.70;;;;;;;21.72;54.59;101102.94;5068524;28;20064;-64
2023/06/07 09:23:47;;;;;;;23.13;10.10;;;;;;;21.70;54.98;101119.34;5057550;28;20592;-60
2023/06/07 09:26:16;;;;;;;21.98;11.32;;;;;;;21.65;54.86;101107.66;5057350;28;20057;-59
2023/06/07 09:28:47;;;;;;;27.33;11.07;;;;;;;21.88;54.59;101100.00;5061749;28;20045;-59
2023/06/07 09:31:29;;;;;;;20.08;10.02;;;;;;;22.04;54.16;101104.22;5064026;28;20555;-59
2023/06/07 09:33:56;;;;;;;30.42;10.38;;;;;;;22.11;54.00;101109.91;5064101;28;20056;-60
2023/06/07 09:36:27;;;;;;;24.25;10.13;;;;;;;22.20;53.60;101096.41;5059365;28;20037;-60
2023/06/07 09:38:56;;;;;;;25.52;10.05;;;;;;;22.03;53.64;101097.00;5068219;28;20044;-59
2023/06/07 09:41:29;;;;;;;27.73;8.95;;;;;;;22.27;52.80;101093.69;5057802;28;20752;-59
2023/06/07 09:43:57;;;;;;;19.38;9.30;;;;;;;22.52;52.31;101090.34;5069910;28;20052;-59
2023/06/07 09:46:33;;;;;;;17.83;9.55;;;;;;;22.27;51.88;101090.06;5059364;28;20094;-59
2023/06/07 09:49:01;;;;;;;20.63;9.40;;;;;;;22.11;52.40;101101.50;5058530;28;20053;-60
2023/06/07 09:51:38;;;;;;;18.05;9.43;;;;;;;22.09;52.62;101089.84;5060183;28;20526;-61
2023/06/07 09:54:07;;;;;;;16.85;8.80;;;;;;;22.22;52.43;101080.00;5053688;28;20068;-62
2023/06/07 09:56:38;;;;;;;24.88;8.93;;;;;;;22.45;51.90;101079.84;5064092;28;20055;-63
2023/06/07 09:59:07;;;;;;;25.73;8.75;;;;;;;22.51;51.82;101081.09;5060382;28;20118;-63
2023/06/07 10:01:37;;;;;;;17.13;9.25;;;;;;;22.62;50.74;101073.63;5059870;28;20060;-64
2023/06/07 10:04:06;;;;;;;23.90;9.25;;;;;;;22.60;50.95;101066.78;5063332;28;20052;-64
2023/06/07 10:06:39;;;;;;;23.10;9.30;;;;;;;22.58;50.24;101072.00;5044717;28;20744;-64
2023/06/07 10:09:06;;;;;;;13.77;7.75;;;;;;;22.44;50.02;101074.63;5058997;28;20123;-64
2023/06/07 10:11:36;;;;;;;21.38;7.85;;;;;;;22.45;50.01;101063.00;5061483;28;20041;-65
2023/06/07 10:14:14;;;;;;;16.27;9.20;;;;;;;22.51;49.92;101072.69;5056785;28;20065;-64
2023/06/07 10:16:45;;;;;;;15.82;8.52;;;;;;;22.59;50.96;101065.97;5064801;28;20044;-65
2023/06/07 10:19:14;;;;;;;14.57;8.50;;;;;;;22.78;50.47;101057.34;5036278;28;20037;-65
2023/06/07 10:21:46;;;;;;;18.75;8.70;;;;;;;22.80;49.90;101051.34;5058524;28;20049;-64
2023/06/07 10:24:20;;;;;;;22.08;8.32;;;;;;;22.89;49.72;101054.63;5061350;28;20064;-64
2023/06/07 10:26:53;;;;;;;14.63;8.10;;;;;;;22.96;48.96;101054.69;5055409;28;20045;-65
2023/06/07 10:29:29;;;;;;;18.70;7.47;;;;;;;23.08;48.85;101054.38;5061438;28;20110;-65
2023/06/07 10:32:13;;;;;;;15.55;8.10;;;;;;;23.08;48.22;101052.34;5049503;28;20538;-64
2023/06/07 10:34:42;;;;;;;22.27;8.05;;;;;;;23.03;48.57;101049.13;5059298;28;20590;-66
2023/06/07 10:37:09;;;;;;;14.88;7.68;;;;;;;23.13;48.89;101054.84;5048302;28;20056;-64
2023/06/07 10:39:38;;;;;;;18.95;9.10;;;;;;;23.14;48.28;101048.00;5040987;28;20049;-65
2023/06/07 10:42:06;;;;;;;17.50;7.93;;;;;;;23.33;48.38;101035.69;5053222;28;20819;-64
2023/06/07 10:44:36;;;;;;;14.90;8.10;;;;;;;23.46;48.23;101037.00;5048921;28;20492;-64
2023/06/07 10:47:22;;;;;;;18.23;7.50;;;;;;;23.40;47.37;101038.56;5054655;28;20041;-65
2023/06/07 10:49:50;;;;;;;17.15;7.35;;;;;;;23.51;46.59;101041.44;5054382;28;20059;-66
2023/06/07 10:52:18;;;;;;;11.82;6.43;;;;;;;23.47;46.67;101035.78;5055885;28;20064;-65
2023/06/07 10:54:46;;;;;;;13.82;6.63;;;;;;;23.53;46.91;101028.59;5059900;28;20067;-65
2023/06/07 10:57:13;;;;;;;15.00;7.40;;;;;;;23.66;47.12;101026.28;5060048;28;20048;-65
2023/06/07 10:59:41;;;;;;;18.20;7.35;;;;;;;23.76;46.93;101017.06;5059397;28;20729;-65
2023/06/07 11:02:17;;;;;;;13.40;6.55;;;;;;;23.74;45.43;101033.53;5056576;28;20433;-64
2023/06/07 11:04:48;;;;;;;11.43;6.70;;;;;;;23.76;46.12;101019.88;5054394;28;20045;-66
2023/06/07 11:07:28;;;;;;;12.40;6.57;;;;;;;23.98;46.13;101010.31;5053075;28;20045;-64
2023/06/07 11:10:04;;;;;;;12.45;7.28;;;;;;;24.17;46.04;101010.81;5058240;28;20530;-65
2023/06/07 11:12:40;;;;;;;19.90;6.68;;;;;;;24.27;45.47;101017.66;5055233;28;20148;-65
2023/06/07 11:15:20;;;;;;;14.32;6.65;;;;;;;24.29;44.91;101016.06;5055408;28;20052;-65
2023/06/07 11:17:55;;;;;;;15.07;6.85;;;;;;;24.39;44.31;101008.84;5058743;28;20041;-65
2023/06/07 11:20:35;;;;;;;12.18;6.68;;;;;;;24.50;43.46;101004.03;5053079;28;20045;-65
2023/06/07 11:23:26;;;;;;;14.52;6.15;;;;;;;24.64;43.42;101003.22;5053184;28;20037;-65